Devonshire, New Jersey
Current Conditions -  °F | °C
As of 6:54 PM on Sunday 21 Dec 2014 (Local Time) from KACY Reporting Station
Clear Clear  
Wind Chill: 23°   Ceiling: Unl
Heat Index: 28°   Visibility: 10mi
Dew Point: 20°   Wind: 5mph
Humidity: 72%   Direction: 20°NNE
Pressure: 30.34"   Gusts: NA
Location:  39.5436°N, 74.5919°W
Report Text: KACY 212354Z 02004KT 10SM CLR M02/M07 A3034 RMK AO2 SLP273 T10221067 10050 21028 51020
Loading
Personal Weather Stations






























Interactive Weather Map New forecast layout! Learn more

10-Day Weather Forecast

Advertisements
Track Severe Weather on mobile